Oak Ridge, TN (37830)

1:53 PM EST on February 12, 2016 (GMT -0500)
Eyman Osage Rd | | Change Station
CLOSE
Current Station
Personal Weather Station
Location: Oak Ridge, TN
Elevation: 1109 ft
Nearby Weather Stations
Active Advisory: Winter Weather Advisory

Elev 1109 ft 36.03 °N, 84.26 °W | Updated 6 minutes ago

Overcast
Overcast
36.1 °F
Feels Like 36 °F
N
0.0
Wind Variable Wind from WNW

Today
High -- | Low -- °F
--% Chance of Precip.
Yesterday
High -- | Low -- °F
Precip. -- in
Pressure 30.19 in
Visibility 10.0 miles
Clouds Overcast 4400 ft
Windchill 36 °F
Dew Point 33 °F
Humidity 89%
Rainfall 0.00 in
Snow Depth Not available.
7:28 AM 6:14 PM
Waxing Crescent, 22% visible
METAR KOQT 121753Z AUTO 00000KT 10SM OVC044 01/M01 A3014 RMK AO2 SLP221 60012 T00111011 10011 21017 58008
Pressure 30.19 in
Visibility 10.0 miles
Clouds Overcast 4400 ft
Windchill 36 °F
Dew Point 33 °F
Humidity 89%
Rainfall 0.00 in
Snow Depth Not available.
7:28 AM 6:14 PM
Waxing Crescent, 22% visible
METAR KOQT 121753Z AUTO 00000KT 10SM OVC044 01/M01 A3014 RMK AO2 SLP221 60012 T00111011 10011 21017 58008

10-Day Weather Forecast

Almanac

Astronomy

Feb. 12, 2016 Rise Set
Actual Time
Civil Twilight
Nautical Twilight
Astronomical Twilight
Moon
Length of Visible Light
Length of Day
Tomorrow will be .
, % of the Moon is Illuminated

Today's Extremes

State Highs State Lows

Community

WunderPhotos

Upload Photos

1,892,369 photos uploaded!

WunderBlog® & News

Nearby

Air Quality

  Air Quality AQ Index Pollutant
Not available.

Snow Depth

Station Depth Elevation

Earthquake Activity

City Distance Mag. Time & Date
Minimum magnitude displayed is 2.5.

Coastal Water Temperatures

Place Temperature

Stations

Nearby Weather Stations

Station Location Temp. Windchill Dew Point Humidity Wind Precip. Elev Updated Type
                   

Watches & Warnings

Winter Weather Advisory
Issued: 8:10 AM EST Feb. 12, 2016 – National Weather Service

... Winter Weather Advisory in effect until 4 PM EST this
afternoon...

The National Weather Service in Morristown has issued a Winter
Weather Advisory for snow... which is in effect until 4 PM EST this
afternoon.

* Event... snow accumulations up to 1 inches are expected.

* Timing... snow will continue falling morning then will taper off
this afternoon.

* Impacts... the snow may lead to hazardous Road conditions
especially on untreated roadways.

Precautionary/preparedness actions...

Travel will likely become hazardous once the wintry precipitation
begins. Motorists need to be especially careful on bridges and
overpasses where slippery spots often develop first.